sensor_id;sensor_type;location;lat;lon;timestamp;pressure;altitude;pressure_sealevel;temperature;humidity
44131;BME280;29792;48.726;9.248;2023-01-31T00:00:44;97754.72;;;2.60;100.00
44131;BME280;29792;48.726;9.248;2023-01-31T00:03:09;97749.75;;;2.59;100.00
44131;BME280;29792;48.726;9.248;2023-01-31T00:05:34;97749.00;;;2.55;100.00
44131;BME280;29792;48.726;9.248;2023-01-31T00:08:00;97757.47;;;2.54;100.00
44131;BME280;29792;48.726;9.248;2023-01-31T00:10:25;97751.72;;;2.51;100.00
44131;BME280;29792;48.726;9.248;2023-01-31T00:12:51;97752.56;;;2.51;100.00
44131;BME280;29792;48.726;9.248;2023-01-31T00:15:16;97745.06;;;2.48;100.00
44131;BME280;29792;48.726;9.248;2023-01-31T00:17:42;97752.66;;;2.48;100.00
44131;BME280;29792;48.726;9.248;2023-01-31T00:20:08;97751.81;;;2.48;100.00
44131;BME280;29792;48.726;9.248;2023-01-31T00:22:33;97749.47;;;2.43;100.00
44131;BME280;29792;48.726;9.248;2023-01-31T00:24:59;97751.28;;;2.40;100.00
44131;BME280;29792;48.726;9.248;2023-01-31T00:27:24;97748.75;;;2.40;100.00
44131;BME280;29792;48.726;9.248;2023-01-31T00:29:50;97736.34;;;2.34;100.00
44131;BME280;29792;48.726;9.248;2023-01-31T00:32:15;97734.72;;;2.31;100.00
44131;BME280;29792;48.726;9.248;2023-01-31T00:34:40;97742.47;;;2.26;100.00
44131;BME280;29792;48.726;9.248;2023-01-31T00:37:05;97727.41;;;2.23;100.00
44131;BME280;29792;48.726;9.248;2023-01-31T00:39:31;97730.91;;;2.19;100.00
44131;BME280;29792;48.726;9.248;2023-01-31T00:41:56;97728.50;;;2.16;100.00
44131;BME280;29792;48.726;9.248;2023-01-31T00:44:21;97729.38;;;2.15;100.00
44131;BME280;29792;48.726;9.248;2023-01-31T00:46:46;97732.09;;;2.11;100.00
44131;BME280;29792;48.726;9.248;2023-01-31T00:49:12;97742.38;;;2.05;100.00
44131;BME280;29792;48.726;9.248;2023-01-31T00:51:37;97738.34;;;2.01;100.00
44131;BME280;29792;48.726;9.248;2023-01-31T00:54:02;97734.25;;;1.97;100.00
44131;BME280;29792;48.726;9.248;2023-01-31T00:56:28;97730.19;;;1.92;100.00
44131;BME280;29792;48.726;9.248;2023-01-31T00:58:53;97733.53;;;1.93;100.00
44131;BME280;29792;48.726;9.248;2023-01-31T01:01:24;97731.88;;;1.92;100.00
44131;BME280;29792;48.726;9.248;2023-01-31T01:03:51;97732.81;;;1.89;100.00
44131;BME280;29792;48.726;9.248;2023-01-31T01:06:16;97734.63;;;1.86;100.00
44131;BME280;29792;48.726;9.248;2023-01-31T01:08:42;97730.44;;;1.85;100.00
44131;BME280;29792;48.726;9.248;2023-01-31T01:11:11;97730.41;;;1.86;100.00
44131;BME280;29792;48.726;9.248;2023-01-31T01:13:37;97737.06;;;1.87;100.00
44131;BME280;29792;48.726;9.248;2023-01-31T01:16:07;97733.81;;;1.85;100.00
44131;BME280;29792;48.726;9.248;2023-01-31T01:18:34;97742.19;;;1.86;100.00
44131;BME280;29792;48.726;9.248;2023-01-31T01:21:11;97738.06;;;1.83;100.00
44131;BME280;29792;48.726;9.248;2023-01-31T01:23:38;97742.25;;;1.84;100.00
44131;BME280;29792;48.726;9.248;2023-01-31T01:26:04;97743.94;;;1.84;100.00
44131;BME280;29792;48.726;9.248;2023-01-31T01:28:32;97737.25;;;1.83;100.00
44131;BME280;29792;48.726;9.248;2023-01-31T01:30:59;97740.59;;;1.83;100.00
44131;BME280;29792;48.726;9.248;2023-01-31T01:33:24;97744.72;;;1.86;100.00
44131;BME280;29792;48.726;9.248;2023-01-31T01:35:49;97742.94;;;1.88;100.00
44131;BME280;29792;48.726;9.248;2023-01-31T01:38:14;97741.25;;;1.88;100.00
44131;BME280;29792;48.726;9.248;2023-01-31T01:40:40;97743.69;;;1.91;100.00
44131;BME280;29792;48.726;9.248;2023-01-31T01:43:08;97735.25;;;1.92;100.00
44131;BME280;29792;48.726;9.248;2023-01-31T01:45:35;97741.81;;;1.97;100.00
44131;BME280;29792;48.726;9.248;2023-01-31T01:48:05;97742.66;;;1.97;100.00
44131;BME280;29792;48.726;9.248;2023-01-31T01:50:36;97755.28;;;1.97;100.00
44131;BME280;29792;48.726;9.248;2023-01-31T01:53:10;97751.88;;;1.98;100.00
44131;BME280;29792;48.726;9.248;2023-01-31T01:56:14;97742.69;;;1.96;100.00
44131;BME280;29792;48.726;9.248;2023-01-31T01:58:53;97752.75;;;1.97;100.00
44131;BME280;29792;48.726;9.248;2023-01-31T02:01:19;97746.00;;;1.98;100.00
44131;BME280;29792;48.726;9.248;2023-01-31T02:03:46;97752.75;;;1.97;100.00
44131;BME280;29792;48.726;9.248;2023-01-31T02:06:12;97756.97;;;1.97;100.00
44131;BME280;29792;48.726;9.248;2023-01-31T02:08:39;97753.63;;;1.96;100.00
44131;BME280;29792;48.726;9.248;2023-01-31T02:11:12;97760.38;;;1.96;100.00
44131;BME280;29792;48.726;9.248;2023-01-31T02:13:40;97763.72;;;1.96;100.00
44131;BME280;29792;48.726;9.248;2023-01-31T02:16:06;97768.03;;;1.94;100.00
44131;BME280;29792;48.726;9.248;2023-01-31T02:18:33;97763.84;;;1.93;100.00
44131;BME280;29792;48.726;9.248;2023-01-31T02:29:45;97762.75;;;1.75;100.00
44131;BME280;29792;48.726;9.248;2023-01-31T02:35:27;97762.28;;;1.64;100.00
44131;BME280;29792;48.726;9.248;2023-01-31T02:38:03;97755.72;;;1.59;100.00
44131;BME280;29792;48.726;9.248;2023-01-31T02:40:53;97765.88;;;1.57;100.00
44131;BME280;29792;48.726;9.248;2023-01-31T02:46:09;97776.88;;;1.54;100.00
44131;BME280;29792;48.726;9.248;2023-01-31T02:48:56;97790.41;;;1.53;100.00
44131;BME280;29792;48.726;9.248;2023-01-31T02:51:34;97794.75;;;1.48;100.00
44131;BME280;29792;48.726;9.248;2023-01-31T02:54:12;97788.00;;;1.49;100.00
44131;BME280;29792;48.726;9.248;2023-01-31T02:56:41;97778.69;;;1.51;100.00
44131;BME280;29792;48.726;9.248;2023-01-31T02:59:20;97787.97;;;1.50;100.00
44131;BME280;29792;48.726;9.248;2023-01-31T03:01:50;97788.13;;;1.46;100.00
44131;BME280;29792;48.726;9.248;2023-01-31T03:04:19;97798.16;;;1.47;100.00
44131;BME280;29792;48.726;9.248;2023-01-31T03:07:06;97793.00;;;1.50;100.00
44131;BME280;29792;48.726;9.248;2023-01-31T03:09:46;97795.44;;;1.53;100.00
44131;BME280;29792;48.726;9.248;2023-01-31T03:23:03;97797.66;;;1.63;100.00
44131;BME280;29792;48.726;9.248;2023-01-31T03:25:31;97796.78;;;1.64;100.00
44131;BME280;29792;48.726;9.248;2023-01-31T03:28:01;97798.44;;;1.65;100.00
44131;BME280;29792;48.726;9.248;2023-01-31T03:33:26;97808.50;;;1.66;100.00
44131;BME280;29792;48.726;9.248;2023-01-31T03:36:03;97810.16;;;1.67;100.00
44131;BME280;29792;48.726;9.248;2023-01-31T03:38:34;97811.75;;;1.70;100.00
44131;BME280;29792;48.726;9.248;2023-01-31T03:41:26;97815.88;;;1.72;100.00
44131;BME280;29792;48.726;9.248;2023-01-31T03:44:05;97820.84;;;1.75;100.00
44131;BME280;29792;48.726;9.248;2023-01-31T03:49:28;97815.69;;;1.78;100.00
44131;BME280;29792;48.726;9.248;2023-01-31T03:52:03;97812.34;;;1.78;100.00
44131;BME280;29792;48.726;9.248;2023-01-31T03:54:35;97807.28;;;1.78;100.00
44131;BME280;29792;48.726;9.248;2023-01-31T03:57:24;97811.53;;;1.77;100.00
44131;BME280;29792;48.726;9.248;2023-01-31T03:59:54;97804.78;;;1.78;100.00
44131;BME280;29792;48.726;9.248;2023-01-31T04:02:24;97814.88;;;1.78;100.00
44131;BME280;29792;48.726;9.248;2023-01-31T04:04:54;97816.63;;;1.76;100.00
44131;BME280;29792;48.726;9.248;2023-01-31T04:07:23;97821.69;;;1.74;100.00
44131;BME280;29792;48.726;9.248;2023-01-31T04:09:48;97820.09;;;1.72;100.00
44131;BME280;29792;48.726;9.248;2023-01-31T04:12:14;97829.47;;;1.68;100.00
44131;BME280;29792;48.726;9.248;2023-01-31T04:14:39;97833.00;;;1.63;100.00
44131;BME280;29792;48.726;9.248;2023-01-31T04:17:05;97834.00;;;1.59;100.00
44131;BME280;29792;48.726;9.248;2023-01-31T04:19:30;97836.59;;;1.56;100.00
44131;BME280;29792;48.726;9.248;2023-01-31T04:21:55;97839.31;;;1.49;100.00
44131;BME280;29792;48.726;9.248;2023-01-31T04:24:20;97839.50;;;1.43;100.00
44131;BME280;29792;48.726;9.248;2023-01-31T04:26:46;97836.41;;;1.35;100.00
44131;BME280;29792;48.726;9.248;2023-01-31T04:29:11;97829.00;;;1.29;100.00
44131;BME280;29792;48.726;9.248;2023-01-31T04:31:37;97828.28;;;1.26;100.00
44131;BME280;29792;48.726;9.248;2023-01-31T04:34:03;97828.41;;;1.21;100.00
44131;BME280;29792;48.726;9.248;2023-01-31T04:36:28;97831.88;;;1.17;100.00
44131;BME280;29792;48.726;9.248;2023-01-31T04:38:54;97831.16;;;1.13;100.00
44131;BME280;29792;48.726;9.248;2023-01-31T04:41:19;97831.25;;;1.10;100.00
44131;BME280;29792;48.726;9.248;2023-01-31T04:43:44;97834.69;;;1.08;100.00
44131;BME280;29792;48.726;9.248;2023-01-31T04:46:09;97839.81;;;1.05;100.00
44131;BME280;29792;48.726;9.248;2023-01-31T04:48:35;97838.13;;;1.05;100.00
44131;BME280;29792;48.726;9.248;2023-01-31T04:51:00;97831.44;;;1.04;100.00
44131;BME280;29792;48.726;9.248;2023-01-31T04:53:25;97839.03;;;1.03;100.00
44131;BME280;29792;48.726;9.248;2023-01-31T04:55:54;97844.94;;;1.02;100.00
44131;BME280;29792;48.726;9.248;2023-01-31T04:58:19;97840.78;;;1.01;100.00
44131;BME280;29792;48.726;9.248;2023-01-31T05:00:45;97844.16;;;1.00;100.00
44131;BME280;29792;48.726;9.248;2023-01-31T05:03:10;97839.94;;;1.00;100.00
44131;BME280;29792;48.726;9.248;2023-01-31T05:05:36;97829.06;;;0.98;100.00
44131;BME280;29792;48.726;9.248;2023-01-31T05:08:01;97829.91;;;0.99;100.00
44131;BME280;29792;48.726;9.248;2023-01-31T05:10:26;97831.53;;;1.00;100.00
44131;BME280;29792;48.726;9.248;2023-01-31T05:12:51;97829.81;;;1.02;100.00
44131;BME280;29792;48.726;9.248;2023-01-31T05:15:17;97840.69;;;1.04;100.00
44131;BME280;29792;48.726;9.248;2023-01-31T05:17:42;97836.34;;;1.09;100.00
44131;BME280;29792;48.726;9.248;2023-01-31T05:20:08;97836.22;;;1.13;100.00
44131;BME280;29792;48.726;9.248;2023-01-31T05:22:33;97836.91;;;1.19;100.00
44131;BME280;29792;48.726;9.248;2023-01-31T05:24:58;97845.25;;;1.21;100.00
44131;BME280;29792;48.726;9.248;2023-01-31T05:27:24;97838.41;;;1.24;100.00
44131;BME280;29792;48.726;9.248;2023-01-31T05:29:49;97837.41;;;1.30;100.00
44131;BME280;29792;48.726;9.248;2023-01-31T05:32:14;97838.97;;;1.34;100.00
44131;BME280;29792;48.726;9.248;2023-01-31T05:34:41;97844.75;;;1.37;100.00
44131;BME280;29792;48.726;9.248;2023-01-31T05:37:07;97842.94;;;1.41;100.00
44131;BME280;29792;48.726;9.248;2023-01-31T05:39:32;97847.03;;;1.45;100.00
44131;BME280;29792;48.726;9.248;2023-01-31T05:41:57;97854.50;;;1.48;100.00
44131;BME280;29792;48.726;9.248;2023-01-31T05:44:23;97851.06;;;1.50;100.00
44131;BME280;29792;48.726;9.248;2023-01-31T05:46:48;97857.72;;;1.53;100.00
44131;BME280;29792;48.726;9.248;2023-01-31T05:49:13;97851.00;;;1.53;100.00
44131;BME280;29792;48.726;9.248;2023-01-31T05:51:39;97848.38;;;1.55;100.00
44131;BME280;29792;48.726;9.248;2023-01-31T05:54:05;97845.03;;;1.54;100.00
44131;BME280;29792;48.726;9.248;2023-01-31T05:56:31;97842.47;;;1.56;100.00
44131;BME280;29792;48.726;9.248;2023-01-31T05:58:56;97851.00;;;1.53;100.00
44131;BME280;29792;48.726;9.248;2023-01-31T06:01:24;97851.00;;;1.53;100.00
44131;BME280;29792;48.726;9.248;2023-01-31T06:03:49;97852.81;;;1.48;100.00
44131;BME280;29792;48.726;9.248;2023-01-31T06:06:15;97845.38;;;1.44;100.00
44131;BME280;29792;48.726;9.248;2023-01-31T06:08:40;97851.44;;;1.38;100.00
44131;BME280;29792;48.726;9.248;2023-01-31T06:11:10;97849.09;;;1.32;100.00
44131;BME280;29792;48.726;9.248;2023-01-31T06:13:36;97854.31;;;1.26;100.00
44131;BME280;29792;48.726;9.248;2023-01-31T06:16:02;97857.75;;;1.24;100.00
44131;BME280;29792;48.726;9.248;2023-01-31T06:18:27;97862.09;;;1.20;100.00
44131;BME280;29792;48.726;9.248;2023-01-31T06:20:53;97863.03;;;1.16;100.00
44131;BME280;29792;48.726;9.248;2023-01-31T06:23:18;97855.66;;;1.10;100.00
44131;BME280;29792;48.726;9.248;2023-01-31T06:25:44;97861.59;;;1.07;100.00
44131;BME280;29792;48.726;9.248;2023-01-31T06:28:12;97862.53;;;1.05;100.00
44131;BME280;29792;48.726;9.248;2023-01-31T06:30:37;97865.97;;;1.02;100.00
44131;BME280;29792;48.726;9.248;2023-01-31T06:33:02;97865.19;;;0.99;100.00
44131;BME280;29792;48.726;9.248;2023-01-31T06:35:28;97865.34;;;0.94;100.00
44131;BME280;29792;48.726;9.248;2023-01-31T06:37:54;97863.72;;;0.92;100.00
44131;BME280;29792;48.726;9.248;2023-01-31T06:40:19;97865.47;;;0.90;100.00
44131;BME280;29792;48.726;9.248;2023-01-31T06:42:45;97866.34;;;0.89;100.00
44131;BME280;29792;48.726;9.248;2023-01-31T06:45:10;97873.09;;;0.88;100.00
44131;BME280;29792;48.726;9.248;2023-01-31T06:47:35;97870.59;;;0.87;100.00
44131;BME280;29792;48.726;9.248;2023-01-31T06:50:01;97872.38;;;0.83;100.00
44131;BME280;29792;48.726;9.248;2023-01-31T06:52:26;97868.19;;;0.82;100.00
44131;BME280;29792;48.726;9.248;2023-01-31T06:54:51;97869.13;;;0.80;100.00
44131;BME280;29792;48.726;9.248;2023-01-31T06:57:16;97875.81;;;0.81;100.00
44131;BME280;29792;48.726;9.248;2023-01-31T06:59:41;97870.78;;;0.81;100.00
44131;BME280;29792;48.726;9.248;2023-01-31T07:02:08;97872.50;;;0.79;100.00
44131;BME280;29792;48.726;9.248;2023-01-31T07:04:34;97868.34;;;0.77;100.00
44131;BME280;29792;48.726;9.248;2023-01-31T07:06:59;97863.31;;;0.76;100.00
44131;BME280;29792;48.726;9.248;2023-01-31T07:09:24;97858.28;;;0.76;100.00
44131;BME280;29792;48.726;9.248;2023-01-31T07:11:49;97854.94;;;0.75;100.00
44131;BME280;29792;48.726;9.248;2023-01-31T07:14:15;97858.16;;;0.81;100.00
44131;BME280;29792;48.726;9.248;2023-01-31T07:16:40;97850.41;;;0.88;100.00
44131;BME280;29792;48.726;9.248;2023-01-31T07:19:05;97859.44;;;0.95;100.00
44131;BME280;29792;48.726;9.248;2023-01-31T07:21:31;97856.88;;;0.97;100.00
44131;BME280;29792;48.726;9.248;2023-01-31T07:23:57;97857.47;;;1.05;100.00
44131;BME280;29792;48.726;9.248;2023-01-31T07:26:22;97860.31;;;1.22;100.00
44131;BME280;29792;48.726;9.248;2023-01-31T07:28:48;97860.56;;;1.42;100.00
44131;BME280;29792;48.726;9.248;2023-01-31T07:31:13;97847.19;;;1.67;100.00
44131;BME280;29792;48.726;9.248;2023-01-31T07:33:39;97856.31;;;1.97;100.00
44131;BME280;29792;48.726;9.248;2023-01-31T07:36:06;97849.59;;;2.22;100.00
44131;BME280;29792;48.726;9.248;2023-01-31T07:38:33;97861.38;;;2.48;100.00
44131;BME280;29792;48.726;9.248;2023-01-31T07:40:59;97864.97;;;2.66;100.00
44131;BME280;29792;48.726;9.248;2023-01-31T07:43:25;97861.72;;;2.86;100.00
44131;BME280;29792;48.726;9.248;2023-01-31T07:45:51;97864.53;;;3.01;100.00
44131;BME280;29792;48.726;9.248;2023-01-31T07:48:16;97873.34;;;3.15;100.00
44131;BME280;29792;48.726;9.248;2023-01-31T07:50:47;97877.88;;;3.28;100.00
44131;BME280;29792;48.726;9.248;2023-01-31T07:53:12;97875.72;;;3.41;100.00
44131;BME280;29792;48.726;9.248;2023-01-31T07:55:38;97872.63;;;3.56;100.00
44131;BME280;29792;48.726;9.248;2023-01-31T07:58:03;97879.69;;;3.70;100.00
44131;BME280;29792;48.726;9.248;2023-01-31T08:00:28;97868.16;;;3.83;100.00
44131;BME280;29792;48.726;9.248;2023-01-31T08:03:23;97871.31;;;4.10;100.00
44131;BME280;29792;48.726;9.248;2023-01-31T08:06:08;97874.31;;;4.60;100.00
44131;BME280;29792;48.726;9.248;2023-01-31T08:08:35;97878.09;;;5.28;100.00
44131;BME280;29792;48.726;9.248;2023-01-31T08:11:00;97879.84;;;5.82;100.00
44131;BME280;29792;48.726;9.248;2023-01-31T08:13:26;97864.53;;;6.18;98.30
44131;BME280;29792;48.726;9.248;2023-01-31T08:15:52;97868.59;;;6.57;95.89
44131;BME280;29792;48.726;9.248;2023-01-31T08:18:18;97867.53;;;6.94;92.79
44131;BME280;29792;48.726;9.248;2023-01-31T08:20:43;97869.63;;;7.18;90.50
44131;BME280;29792;48.726;9.248;2023-01-31T08:23:09;97870.03;;;7.42;88.25
44131;BME280;29792;48.726;9.248;2023-01-31T08:25:34;97870.53;;;7.64;85.79
44131;BME280;29792;48.726;9.248;2023-01-31T08:28:00;97865.78;;;7.43;82.69
44131;BME280;29792;48.726;9.248;2023-01-31T08:30:26;97866.94;;;6.88;82.55
44131;BME280;29792;48.726;9.248;2023-01-31T08:32:52;97879.81;;;6.35;82.35
44131;BME280;29792;48.726;9.248;2023-01-31T08:35:17;97873.88;;;6.00;84.33
44131;BME280;29792;48.726;9.248;2023-01-31T08:37:42;97886.22;;;5.72;85.10
44131;BME280;29792;48.726;9.248;2023-01-31T08:40:08;97875.41;;;5.50;86.85
44131;BME280;29792;48.726;9.248;2023-01-31T08:42:33;97872.47;;;5.40;87.86
44131;BME280;29792;48.726;9.248;2023-01-31T08:44:58;97868.03;;;5.26;87.87
44131;BME280;29792;48.726;9.248;2023-01-31T08:47:24;97870.28;;;5.14;88.40
44131;BME280;29792;48.726;9.248;2023-01-31T08:49:49;97872.88;;;5.12;89.55
44131;BME280;29792;48.726;9.248;2023-01-31T08:52:14;97862.31;;;5.21;91.71
44131;BME280;29792;48.726;9.248;2023-01-31T08:54:39;97860.81;;;5.17;91.34
44131;BME280;29792;48.726;9.248;2023-01-31T08:57:05;97857.16;;;5.04;89.79
44131;BME280;29792;48.726;9.248;2023-01-31T08:59:30;97862.84;;;4.90;90.49
44131;BME280;29792;48.726;9.248;2023-01-31T09:01:55;97862.56;;;4.78;90.54
44131;BME280;29792;48.726;9.248;2023-01-31T09:04:20;97856.41;;;4.63;90.96
44131;BME280;29792;48.726;9.248;2023-01-31T09:06:46;97858.66;;;4.50;91.70
44131;BME280;29792;48.726;9.248;2023-01-31T09:09:11;97860.75;;;4.41;91.85
44131;BME280;29792;48.726;9.248;2023-01-31T09:11:36;97860.13;;;4.36;93.04
44131;BME280;29792;48.726;9.248;2023-01-31T09:14:03;97865.13;;;4.37;93.22
44131;BME280;29792;48.726;9.248;2023-01-31T09:16:28;97859.25;;;4.37;93.64
44131;BME280;29792;48.726;9.248;2023-01-31T09:18:54;97861.69;;;4.38;94.24
44131;BME280;29792;48.726;9.248;2023-01-31T09:21:21;97865.75;;;4.42;94.48
44131;BME280;29792;48.726;9.248;2023-01-31T09:23:47;97867.03;;;4.52;94.65
44131;BME280;29792;48.726;9.248;2023-01-31T09:26:13;97867.16;;;4.70;95.62
44131;BME280;29792;48.726;9.248;2023-01-31T09:28:39;97864.50;;;4.91;95.82
44131;BME280;29792;48.726;9.248;2023-01-31T09:31:13;97867.72;;;5.14;95.68
44131;BME280;29792;48.726;9.248;2023-01-31T09:33:39;97861.22;;;5.27;94.20
44131;BME280;29792;48.726;9.248;2023-01-31T09:36:07;97865.03;;;5.35;92.73
44131;BME280;29792;48.726;9.248;2023-01-31T09:38:33;97861.72;;;5.35;90.19
44131;BME280;29792;48.726;9.248;2023-01-31T09:41:03;97861.06;;;5.30;89.97
44131;BME280;29792;48.726;9.248;2023-01-31T09:43:38;97863.00;;;5.25;89.43
44131;BME280;29792;48.726;9.248;2023-01-31T09:46:04;97864.78;;;5.23;89.68
44131;BME280;29792;48.726;9.248;2023-01-31T09:48:33;97848.84;;;5.19;89.21
44131;BME280;29792;48.726;9.248;2023-01-31T09:51:00;97841.16;;;5.21;89.55
44131;BME280;29792;48.726;9.248;2023-01-31T09:53:32;97848.72;;;5.41;90.84
44131;BME280;29792;48.726;9.248;2023-01-31T09:56:11;97852.31;;;5.54;89.83
44131;BME280;29792;48.726;9.248;2023-01-31T09:59:01;97859.94;;;5.54;88.09
44131;BME280;29792;48.726;9.248;2023-01-31T10:04:42;97866.03;;;5.33;87.89
44131;BME280;29792;48.726;9.248;2023-01-31T10:12:40;97864.75;;;5.04;88.18
44131;BME280;29792;48.726;9.248;2023-01-31T10:15:28;97868.63;;;4.94;87.59
44131;BME280;29792;48.726;9.248;2023-01-31T10:18:00;97865.59;;;4.86;87.94
44131;BME280;29792;48.726;9.248;2023-01-31T10:20:41;97878.47;;;4.81;88.72
44131;BME280;29792;48.726;9.248;2023-01-31T10:23:20;97875.25;;;4.78;89.47
44131;BME280;29792;48.726;9.248;2023-01-31T10:25:53;97874.44;;;4.77;89.50
44131;BME280;29792;48.726;9.248;2023-01-31T10:31:20;97862.63;;;4.76;89.99
44131;BME280;29792;48.726;9.248;2023-01-31T10:33:54;97850.56;;;4.81;89.96
44131;BME280;29792;48.726;9.248;2023-01-31T10:36:28;97853.34;;;4.75;89.63
44131;BME280;29792;48.726;9.248;2023-01-31T10:39:02;97847.78;;;4.67;90.49
44131;BME280;29792;48.726;9.248;2023-01-31T10:44:52;97845.53;;;4.80;91.80
44131;BME280;29792;48.726;9.248;2023-01-31T10:47:19;97849.88;;;4.96;91.19
44131;BME280;29792;48.726;9.248;2023-01-31T10:49:46;97849.75;;;4.99;90.66
44131;BME280;29792;48.726;9.248;2023-01-31T10:55:02;97841.53;;;4.94;90.81
44131;BME280;29792;48.726;9.248;2023-01-31T10:57:29;97839.16;;;4.90;90.26
44131;BME280;29792;48.726;9.248;2023-01-31T10:59:55;97846.25;;;4.83;89.84
44131;BME280;29792;48.726;9.248;2023-01-31T11:02:28;97854.94;;;4.78;90.20
44131;BME280;29792;48.726;9.248;2023-01-31T11:04:56;97850.06;;;4.73;90.24
44131;BME280;29792;48.726;9.248;2023-01-31T11:07:22;97841.88;;;4.67;89.77
44131;BME280;29792;48.726;9.248;2023-01-31T11:09:52;97844.63;;;4.62;91.06
44131;BME280;29792;48.726;9.248;2023-01-31T11:12:19;97839.75;;;4.57;90.86
44131;BME280;29792;48.726;9.248;2023-01-31T11:14:44;97846.69;;;4.54;90.90
44131;BME280;29792;48.726;9.248;2023-01-31T11:17:20;97821.38;;;4.52;90.92
44131;BME280;29792;48.726;9.248;2023-01-31T11:19:54;97820.41;;;4.55;91.35
44131;BME280;29792;48.726;9.248;2023-01-31T11:22:23;97816.78;;;4.60;91.50
44131;BME280;29792;48.726;9.248;2023-01-31T11:24:50;97814.88;;;4.66;91.87
44131;BME280;29792;48.726;9.248;2023-01-31T11:27:27;97807.97;;;4.69;91.72
44131;BME280;29792;48.726;9.248;2023-01-31T11:29:56;97805.09;;;4.77;92.05
44131;BME280;29792;48.726;9.248;2023-01-31T11:32:25;97808.22;;;4.82;91.46
44131;BME280;29792;48.726;9.248;2023-01-31T11:35:04;97802.06;;;4.87;91.55
44131;BME280;29792;48.726;9.248;2023-01-31T11:37:31;97793.69;;;4.85;90.41
44131;BME280;29792;48.726;9.248;2023-01-31T11:39:59;97790.34;;;4.85;90.48
44131;BME280;29792;48.726;9.248;2023-01-31T11:42:26;97787.53;;;4.91;90.38
44131;BME280;29792;48.726;9.248;2023-01-31T11:45:02;97778.84;;;4.95;90.44
44131;BME280;29792;48.726;9.248;2023-01-31T11:47:38;97771.72;;;5.03;89.99
44131;BME280;29792;48.726;9.248;2023-01-31T11:50:35;97772.34;;;5.08;89.96
44131;BME280;29792;48.726;9.248;2023-01-31T11:53:01;97766.44;;;5.08;89.54
44131;BME280;29792;48.726;9.248;2023-01-31T11:55:35;97772.41;;;5.07;88.56
44131;BME280;29792;48.726;9.248;2023-01-31T11:58:02;97762.13;;;5.10;89.44
44131;BME280;29792;48.726;9.248;2023-01-31T12:00:31;97759.66;;;5.08;88.69
44131;BME280;29792;48.726;9.248;2023-01-31T12:03:01;97751.22;;;5.08;88.43
44131;BME280;29792;48.726;9.248;2023-01-31T12:05:43;97751.22;;;5.08;88.00
44131;BME280;29792;48.726;9.248;2023-01-31T12:08:41;97753.69;;;5.09;88.64
44131;BME280;29792;48.726;9.248;2023-01-31T12:13:49;97762.25;;;5.07;88.62
44131;BME280;29792;48.726;9.248;2023-01-31T12:16:25;97762.97;;;5.10;89.56
44131;BME280;29792;48.726;9.248;2023-01-31T12:26:49;97746.00;;;5.28;87.97
44131;BME280;29792;48.726;9.248;2023-01-31T12:29:46;97739.16;;;5.30;87.44
44131;BME280;29792;48.726;9.248;2023-01-31T12:32:42;97732.16;;;5.35;88.19
44131;BME280;29792;48.726;9.248;2023-01-31T12:40:37;97714.38;;;5.35;85.14
44131;BME280;29792;48.726;9.248;2023-01-31T12:43:14;97708.75;;;5.46;85.11
44131;BME280;29792;48.726;9.248;2023-01-31T12:56:39;97652.78;;;5.64;81.75
44131;BME280;29792;48.726;9.248;2023-01-31T12:59:30;97675.97;;;5.58;82.23
44131;BME280;29792;48.726;9.248;2023-01-31T13:02:22;97691.72;;;5.48;82.63
44131;BME280;29792;48.726;9.248;2023-01-31T13:04:55;97696.34;;;5.40;82.28
44131;BME280;29792;48.726;9.248;2023-01-31T13:07:33;97688.59;;;5.25;81.72
44131;BME280;29792;48.726;9.248;2023-01-31T13:10:02;97691.63;;;5.15;82.77
44131;BME280;29792;48.726;9.248;2023-01-31T13:12:31;97682.59;;;5.09;83.12
44131;BME280;29792;48.726;9.248;2023-01-31T13:15:20;97676.38;;;4.97;83.23
44131;BME280;29792;48.726;9.248;2023-01-31T13:17:54;97663.91;;;4.93;84.05
44131;BME280;29792;48.726;9.248;2023-01-31T13:20:32;97660.47;;;4.94;84.34
44131;BME280;29792;48.726;9.248;2023-01-31T13:23:02;97669.56;;;4.98;84.54
44131;BME280;29792;48.726;9.248;2023-01-31T13:25:38;97663.91;;;4.93;84.61
44131;BME280;29792;48.726;9.248;2023-01-31T13:28:17;97673.38;;;4.89;84.88
44131;BME280;29792;48.726;9.248;2023-01-31T13:30:51;97675.91;;;4.89;85.63
44131;BME280;29792;48.726;9.248;2023-01-31T13:35:55;97658.38;;;4.85;86.08
44131;BME280;29792;48.726;9.248;2023-01-31T13:38:22;97661.16;;;4.79;85.89
44131;BME280;29792;48.726;9.248;2023-01-31T13:40:52;97649.75;;;4.70;85.48
44131;BME280;29792;48.726;9.248;2023-01-31T13:43:19;97655.03;;;4.66;86.18
44131;BME280;29792;48.726;9.248;2023-01-31T13:45:49;97653.44;;;4.63;86.46
44131;BME280;29792;48.726;9.248;2023-01-31T13:48:39;97658.59;;;4.62;86.85
44131;BME280;29792;48.726;9.248;2023-01-31T13:51:13;97663.13;;;4.55;87.05
44131;BME280;29792;48.726;9.248;2023-01-31T13:53:59;97667.81;;;4.45;86.55
44131;BME280;29792;48.726;9.248;2023-01-31T13:56:34;97661.22;;;4.41;87.09
44131;BME280;29792;48.726;9.248;2023-01-31T13:59:01;97656.44;;;4.35;87.71
44131;BME280;29792;48.726;9.248;2023-01-31T14:01:30;97658.06;;;4.36;87.95
44131;BME280;29792;48.726;9.248;2023-01-31T14:09:30;97660.31;;;4.42;88.72
44131;BME280;29792;48.726;9.248;2023-01-31T14:11:58;97661.16;;;4.43;88.88
44131;BME280;29792;48.726;9.248;2023-01-31T14:14:36;97669.59;;;4.43;88.68
44131;BME280;29792;48.726;9.248;2023-01-31T14:22:23;97637.03;;;4.34;88.88
44131;BME280;29792;48.726;9.248;2023-01-31T14:27:25;97613.72;;;4.26;88.99
44131;BME280;29792;48.726;9.248;2023-01-31T14:32:32;97620.63;;;4.22;88.82
44131;BME280;29792;48.726;9.248;2023-01-31T14:35:16;97630.72;;;4.24;89.22
44131;BME280;29792;48.726;9.248;2023-01-31T14:38:34;97633.47;;;4.19;89.07
44131;BME280;29792;48.726;9.248;2023-01-31T14:44:11;97612.97;;;4.24;89.41
44131;BME280;29792;48.726;9.248;2023-01-31T14:54:59;97605.59;;;4.55;89.36
44131;BME280;29792;48.726;9.248;2023-01-31T14:57:30;97606.47;;;4.54;88.84
44131;BME280;29792;48.726;9.248;2023-01-31T15:00:02;97606.41;;;4.56;88.63
44131;BME280;29792;48.726;9.248;2023-01-31T15:05:03;97621.41;;;4.43;88.90